Main page
METAR-TAF:

METAR-TAF

Airports :

Munich Airport

Munich, Germany

latitude: 48-21N, longitude: 011-47E, elevation: 453 m

Current weather observation

The report was made 10 minutes ago, at 03:20 UTC
Calm wind
Temperature 11°C
Humidity 100%
Pressure 1019 hPa
Visibility 10 km or more
Shallow fog

METAR: EDDM 270320Z 00000KT 9999 MIFG NSC 11/11 Q1019 NOSIG

Time: 05:30 (03:30 UTC)

Forecast

The report was made 4 hours and 30 minutes ago, at 23:00 UTC
Forecast valid from 27 at 00 UTC to 28 at 06 UTC
Wind 4 kt from the East/Northeast
Visibility 10 km or more
no clouds below 1500 m and no cumulonimbus

TAF: EDDM 262300Z 2700/2806 07004KT CAVOK

Weather observations and forecasts of more than 4000 airports (METAR and TAF reports).

The available stations are represented by yellow and red dots on the map.

Hover mouse over dot to see the name of the station.

Then click to see weather observations and forecasts.

To change the map : click on the green buttons with a black cross to zoom in, on the green button with a dash to zoom out, or on the green arrows for adjacent maps.


METAR-TAF: